Weather History for KCCY - May, 2012

Change the Weather History Date:

Thursday, May 3, 2012

  Actual Average Record
Temperature  
Mean Temperature 75 °F -  
Max Temperature 86 °F 66 °F 90 °F (1949)
Min Temperature 64 °F 41 °F 26 °F (1967)
Cooling Degree Days 10    
Growing Degree Days 25 (Base 50)    
Moisture  
Dew Point 61 °F    
Average Humidity 61    
Maximum Humidity 78    
Minimum Humidity 40    
Precipitation  
Precipitation 0.10 in - - ()
Sea Level Pressure  
Sea Level Pressure 29.82 in    
Wind  
Wind Speed 7 mph (SSW)    
Max Wind Speed 36 mph    
Max Gust Speed 45 mph    
Visibility 9 miles    
Events Rain    
Averages and records for this station are not official NWS values.
T = Trace of Precipitation, MM = Missing Value Source: NWS Daily Summary

Daily Weather History Graph

Daily Weather History Graph

Search for Another Location

Airport or City:

Trip Planner

Search our weather history database for the weather conditions in past years. The results will help you decide how hot, cold, wet, or windy it might be!

Date:

Astronomy

May. 03, 2012 Rise Set
Actual Time 6:00 AM CDT 8:14 PM CDT
Civil Twilight 5:29 AM CDT 8:45 PM CDT
Nautical Twilight 4:50 AM CDT 9:24 PM CDT
Astronomical Twilight 4:07 AM CDT 10:07 PM CDT
Moon 5:36 PM CDT (5/3) 4:09 AM CDT (5/3)
Length of Visible Light 15h 16m
Length of Day
14h 13m
Waxing Gibbous, 91% of the Moon is Illuminated
May 3
Waxing Gibbous
May 5
Full
May 12
Last Quarter
May 20
New
May 28
First Quarter

Hourly Weather History & Observations

Time (CDT) Temp. Heat Index Dew Point Humidity Pressure Visibility Wind Dir Wind Speed Gust Speed Precip Events Conditions
12:15 AM 71.6 °F - 62.6 °F 73% 29.80 in 2.5 mi ESE 5.8 mph - 0.21 in Rain Heavy Rain
12:35 AM 71.6 °F - 62.6 °F 73% 29.80 in 5.0 mi South 4.6 mph - 0.21 in   Haze
1:15 AM 69.8 °F - 62.6 °F 78% 29.78 in 4.0 mi SSE 4.6 mph - N/A   Haze
1:35 AM 69.8 °F - 62.6 °F 78% 29.77 in 4.0 mi SSE 4.6 mph - N/A   Haze
1:55 AM 69.8 °F - 62.6 °F 78% 29.76 in 4.0 mi SSE 5.8 mph - N/A   Haze
2:15 AM 71.6 °F - 62.6 °F 73% 29.76 in 7.0 mi SSE 3.5 mph - N/A   Scattered Clouds
2:35 AM 69.8 °F - 62.6 °F 78% 29.76 in 4.0 mi SSE 4.6 mph - 0.01 in   Haze
2:55 AM 71.6 °F - 62.6 °F 73% 29.76 in 5.0 mi South 4.6 mph - 0.01 in   Haze
3:15 AM 69.8 °F - 62.6 °F 78% 29.76 in 5.0 mi South 5.8 mph - N/A   Haze
3:35 AM 69.8 °F - 60.8 °F 73% 29.75 in 5.0 mi South 4.6 mph - N/A   Haze
3:55 AM 69.8 °F - 60.8 °F 73% 29.76 in 4.0 mi South 4.6 mph - N/A   Haze
4:15 AM 69.8 °F - 60.8 °F 73% 29.77 in 4.0 mi South 6.9 mph - N/A   Haze
4:35 AM 69.8 °F - 60.8 °F 73% 29.77 in 4.0 mi South 5.8 mph - N/A   Haze
4:55 AM 69.8 °F - 60.8 °F 73% 29.77 in 4.0 mi South 8.1 mph - N/A   Haze
5:15 AM 69.8 °F - 62.6 °F 78% 29.78 in 5.0 mi South 8.1 mph - N/A   Haze
5:35 AM 69.8 °F - 62.6 °F 78% 29.78 in 5.0 mi SSW 6.9 mph - N/A   Haze
5:55 AM 68.0 °F - 60.8 °F 78% 29.81 in 5.0 mi WSW 35.7 mph 44.9 mph 0.06 in Rain Heavy Rain
6:15 AM 66.2 °F - 57.2 °F 73% 29.80 in 10.0 mi West 24.2 mph 36.8 mph 0.02 in Rain Rain
6:35 AM 66.2 °F - 57.2 °F 73% 29.75 in 10.0 mi WNW 33.4 mph 42.6 mph 0.03 in Rain Light Rain
6:55 AM 64.4 °F - 57.2 °F 77% 29.79 in 10.0 mi West 15.0 mph 35.7 mph 0.03 in   Light Drizzle
7:15 AM 66.2 °F - 57.2 °F 73% 29.77 in 10.0 mi NW 6.9 mph - N/A   Clear
7:35 AM 68.0 °F - 59.0 °F 73% 29.75 in 10.0 mi ENE 3.5 mph - N/A   Clear
7:55 AM 69.8 °F - 57.2 °F 64% 29.77 in 10.0 mi South 5.8 mph - N/A   Clear
8:15 AM 71.6 °F - 59.0 °F 64% 29.77 in 10.0 mi South 10.4 mph 21.9 mph N/A Rain Light Rain
8:35 AM 71.6 °F - 59.0 °F 64% 29.78 in 10.0 mi SSW 6.9 mph - N/A Rain Light Rain
8:55 AM 71.6 °F - 59.0 °F 64% 29.80 in 10.0 mi South 11.5 mph - N/A   Clear
9:15 AM 71.6 °F - 60.8 °F 69% 29.80 in 10.0 mi SSE 5.8 mph - N/A   Scattered Clouds
9:35 AM 73.4 °F - 59.0 °F 61% 29.80 in 10.0 mi Calm Calm - N/A   Scattered Clouds
9:55 AM 75.2 °F - 60.8 °F 61% 29.80 in 10.0 mi Calm Calm - N/A   Clear
10:15 AM 75.2 °F - 60.8 °F 61% 29.81 in 10.0 mi South 5.8 mph - N/A   Clear
10:35 AM 78.8 °F - 62.6 °F 57% 29.81 in 10.0 mi South 6.9 mph - N/A   Clear
10:55 AM 78.8 °F - 62.6 °F 57% 29.81 in 10.0 mi SSW 10.4 mph - N/A   Clear
11:15 AM 78.8 °F - 60.8 °F 54% 29.82 in 10.0 mi South 11.5 mph - N/A   Clear
11:35 AM 78.8 °F - 60.8 °F 54% 29.80 in 10.0 mi SSW 8.1 mph - N/A   Clear
11:55 AM 80.6 °F 81.5 °F 60.8 °F 51% 29.82 in 10.0 mi SW 6.9 mph - N/A   Clear
12:15 PM 80.6 °F 81.1 °F 59.0 °F 48% 29.83 in 10.0 mi SW 4.6 mph - N/A   Clear
12:35 PM 80.6 °F 80.8 °F 57.2 °F 45% 29.85 in 10.0 mi Calm Calm - N/A   Clear
12:55 PM 82.4 °F 82.0 °F 57.2 °F 42% 29.85 in 10.0 mi WSW 3.5 mph - N/A   Clear
1:15 PM 82.4 °F 82.0 °F 57.2 °F 42% 29.85 in 10.0 mi SW 3.5 mph - N/A   Clear
1:35 PM 82.4 °F 82.0 °F 57.2 °F 42% 29.85 in 10.0 mi SW 6.9 mph - N/A   Clear
1:55 PM 82.4 °F 82.0 °F 57.2 °F 42% 29.84 in 10.0 mi SW 4.6 mph - N/A   Clear
2:15 PM 84.2 °F 83.5 °F 57.2 °F 40% 29.84 in 10.0 mi SW 5.8 mph - N/A   Clear
2:35 PM 84.2 °F 83.5 °F 57.2 °F 40% 29.84 in 10.0 mi SW 8.1 mph - N/A   Clear
2:55 PM 84.2 °F 83.5 °F 57.2 °F 40% 29.84 in 10.0 mi SW 10.4 mph - N/A   Clear
3:15 PM 84.2 °F 84.4 °F 60.8 °F 45% 29.84 in 10.0 mi SW 6.9 mph - N/A   Clear
3:35 PM 86.0 °F 85.4 °F 59.0 °F 40% 29.84 in 10.0 mi SW 4.6 mph - N/A   Clear
3:55 PM 86.0 °F 86.1 °F 60.8 °F 43% 29.83 in 10.0 mi SSW 6.9 mph - N/A   Clear
4:15 PM 86.0 °F 86.1 °F 60.8 °F 43% 29.83 in 10.0 mi SSW 3.5 mph - N/A   Clear
4:35 PM 86.0 °F 86.6 °F 62.6 °F 45% 29.83 in 10.0 mi SW 9.2 mph - N/A   Clear
4:55 PM 86.0 °F 86.1 °F 60.8 °F 43% 29.84 in 10.0 mi SW 9.2 mph - N/A   Clear
5:15 PM 84.2 °F 84.4 °F 60.8 °F 45% 29.84 in 10.0 mi WSW 10.4 mph - N/A   Clear
5:35 PM 84.2 °F 84.4 °F 60.8 °F 45% 29.85 in 10.0 mi West 9.2 mph - N/A   Clear
5:55 PM 82.4 °F 82.9 °F 60.8 °F 48% 29.86 in 10.0 mi West 9.2 mph - N/A   Clear
6:15 PM 82.4 °F 82.9 °F 60.8 °F 48% 29.85 in 10.0 mi WNW 5.8 mph - N/A   Clear
6:35 PM 82.4 °F 83.4 °F 62.6 °F 51% 29.84 in 10.0 mi WNW 3.5 mph - N/A   Clear
6:55 PM 80.6 °F 82.3 °F 64.4 °F 58% 29.84 in 10.0 mi Calm Calm - N/A   Clear
7:15 PM 80.6 °F 82.3 °F 64.4 °F 58% 29.84 in 10.0 mi SSE 8.1 mph - N/A   Clear
7:35 PM 80.6 °F 81.8 °F 62.6 °F 54% 29.84 in 10.0 mi SSE 6.9 mph - N/A   Clear
7:55 PM 80.6 °F 81.5 °F 60.8 °F 51% 29.84 in 10.0 mi SSE 4.6 mph - N/A   Clear
8:15 PM 78.8 °F - 62.6 °F 57% 29.85 in 10.0 mi South 5.8 mph - N/A   Clear
8:35 PM 77.0 °F - 62.6 °F 61% 29.84 in 10.0 mi SSE 5.8 mph - N/A Rain Light Rain
8:55 PM 78.8 °F - 62.6 °F 57% 29.85 in 10.0 mi SW 3.5 mph - N/A Rain Light Rain
9:15 PM 75.2 °F - 62.6 °F 65% 29.85 in 10.0 mi Calm Calm - N/A   Light Drizzle
9:35 PM 75.2 °F - 62.6 °F 65% 29.86 in 10.0 mi Calm Calm - N/A   Clear
9:55 PM 75.2 °F - 62.6 °F 65% 29.86 in 10.0 mi North 8.1 mph - N/A   Clear
10:15 PM 75.2 °F - 62.6 °F 65% 29.85 in 10.0 mi North 9.2 mph - N/A   Clear
10:35 PM 73.4 °F - 60.8 °F 65% 29.86 in 10.0 mi North 8.1 mph - N/A   Clear
10:55 PM 73.4 °F - 60.8 °F 65% 29.87 in 10.0 mi North 4.6 mph - N/A   Clear
11:15 PM 73.4 °F - 60.8 °F 65% 29.88 in 10.0 mi Calm Calm - N/A   Clear
11:35 PM 71.6 °F - 60.8 °F 69% 29.89 in 10.0 mi Calm Calm - N/A   Mostly Cloudy
11:55 PM 71.6 °F - 60.8 °F 69% 29.89 in 7.0 mi Calm Calm - N/A   Mostly Cloudy